Time;durP1;ratioP1;P1;durP2;ratioP2;P2;SDS_P1;SDS_P2;PMS_P1;PMS_P2;Temp;Humidity;BMP_temperature;BMP_pressure;BME280_temperature;BME280_humidity;BME280_pressure;Samples;Min_cycle;Max_cycle;Signal;HPM_P1;HPM_P2
2023/12/13 00:01:08;;;;;;;;;;;;;;;8.63;71.16;98933.91;4421056;32;33714;-81
2023/12/13 00:03:36;;;;;;;;;;;;;;;8.28;71.93;98931.22;4408545;32;33278;-81
2023/12/13 00:06:04;;;;;;;;;;;;;;;8.58;71.50;98926.25;4407980;32;33459;-83
2023/12/13 00:08:31;;;;;;;;;;;;;;;8.58;72.08;98915.72;4421906;32;33501;-83
2023/12/13 00:10:59;;;;;;;;;;;;;;;8.65;72.11;98919.78;4421404;32;34204;-82
2023/12/13 00:13:27;;;;;;;;;;;;;;;8.60;71.93;98910.41;4421656;32;34248;-83
2023/12/13 00:15:54;;;;;;;;;;;;;;;8.36;72.75;98910.69;4408725;32;33313;-82
2023/12/13 00:18:22;;;;;;;;;;;;;;;8.46;72.52;98904.03;4422010;32;33365;-82
2023/12/13 00:20:49;;;;;;;;;;;;;;;8.64;71.86;98909.28;4408216;32;33377;-82
2023/12/13 00:23:17;;;;;;;;;;;;;;;8.92;70.79;98896.44;4407038;32;34281;-82
2023/12/13 00:25:44;;;;;;;;;;;;;;;8.90;71.12;98887.78;4408574;32;33196;-82
2023/12/13 00:28:12;;;;;;;;;;;;;;;9.09;70.33;98882.41;4421244;32;32914;-82
2023/12/13 00:30:40;;;;;;;;;;;;;;;8.90;71.62;98885.16;4408637;32;34006;-80
2023/12/13 00:33:07;;;;;;;;;;;;;;;8.79;72.21;98873.47;4408110;32;33888;-80
2023/12/13 00:35:35;;;;;;;;;;;;;;;8.04;74.78;98890.31;4408074;32;34346;-80
2023/12/13 00:38:03;;;;;;;;;;;;;;;7.90;74.76;98889.19;4408529;32;32587;-80
2023/12/13 00:40:31;;;;;;;;;;;;;;;8.58;73.03;98870.16;4420428;32;34173;-80
2023/12/13 00:42:58;;;;;;;;;;;;;;;8.19;74.14;98866.75;4421256;32;34124;-80
2023/12/13 00:45:25;;;;;;;;;;;;;;;7.93;75.49;98869.81;4406572;32;32891;-80
2023/12/13 00:47:53;;;;;;;;;;;;;;;7.88;75.32;98877.91;4408411;32;33088;-81
2023/12/13 00:50:21;;;;;;;;;;;;;;;7.84;75.24;98876.34;4420374;32;33011;-81
2023/12/13 00:52:48;;;;;;;;;;;;;;;7.50;76.94;98878.81;4421326;32;32728;-80
2023/12/13 00:55:16;;;;;;;;;;;;;;;7.81;75.65;98873.00;4420770;32;34321;-81
2023/12/13 00:57:43;;;;;;;;;;;;;;;7.80;75.25;98874.78;4406601;32;33746;-81
2023/12/13 01:00:11;;;;;;;;;;;;;;;8.05;73.82;98870.97;4420461;32;34236;-81
2023/12/13 01:02:39;;;;;;;;;;;;;;;8.45;73.02;98865.50;4408058;32;32733;-81
2023/12/13 01:05:07;;;;;;;;;;;;;;;8.11;74.57;98868.03;4422633;32;34189;-80
2023/12/13 01:07:34;;;;;;;;;;;;;;;8.33;73.09;98862.59;4419952;32;34230;-81
2023/12/13 01:10:02;;;;;;;;;;;;;;;8.39;72.94;98851.78;4421047;32;34442;-81
2023/12/13 01:12:30;;;;;;;;;;;;;;;8.28;73.94;98849.69;4419672;32;35013;-81
2023/12/13 01:14:57;;;;;;;;;;;;;;;8.38;73.14;98845.69;4407784;32;33465;-81
2023/12/13 01:17:25;;;;;;;;;;;;;;;8.30;73.84;98839.06;4407644;32;32442;-82
2023/12/13 01:19:52;;;;;;;;;;;;;;;8.09;73.92;98841.00;4420925;32;34404;-81
2023/12/13 01:22:20;;;;;;;;;;;;;;;8.32;73.43;98837.22;4407974;32;33142;-81
2023/12/13 01:24:47;;;;;;;;;;;;;;;8.52;72.19;98825.72;4420756;32;33833;-81
2023/12/13 01:27:15;;;;;;;;;;;;;;;8.10;73.59;98829.53;4406585;32;32575;-80
2023/12/13 01:29:42;;;;;;;;;;;;;;;8.40;72.86;98825.44;4407980;32;32805;-80
2023/12/13 01:32:09;;;;;;;;;;;;;;;8.50;71.90;98812.66;4420302;32;33867;-81
2023/12/13 01:34:37;;;;;;;;;;;;;;;8.57;71.84;98808.78;4407735;32;32869;-82
2023/12/13 01:37:04;;;;;;;;;;;;;;;8.71;71.49;98808.06;4407695;32;32170;-81
2023/12/13 01:39:31;;;;;;;;;;;;;;;8.82;71.02;98800.44;4420345;32;34729;-80
2023/12/13 01:41:59;;;;;;;;;;;;;;;8.54;71.10;98808.06;4415192;32;34755;-81
2023/12/13 01:44:26;;;;;;;;;;;;;;;8.58;71.64;98804.37;4408077;32;34536;-81
2023/12/13 01:46:54;;;;;;;;;;;;;;;8.63;71.86;98797.94;4422215;32;33639;-81
2023/12/13 01:49:21;;;;;;;;;;;;;;;8.46;72.62;98797.97;4420010;32;34980;-81
2023/12/13 01:51:48;;;;;;;;;;;;;;;8.77;71.44;98781.41;4407701;32;33149;-81
2023/12/13 01:54:16;;;;;;;;;;;;;;;8.65;71.52;98767.13;4422427;32;34258;-80
2023/12/13 01:56:43;;;;;;;;;;;;;;;8.31;72.83;98775.00;4407794;32;31957;-80
2023/12/13 01:59:12;;;;;;;;;;;;;;;8.34;73.09;98773.09;4407568;32;34557;-80
2023/12/13 02:01:40;;;;;;;;;;;;;;;8.39;72.94;98773.72;4408043;32;33070;-80
2023/12/13 02:04:08;;;;;;;;;;;;;;;8.45;72.67;98759.41;4407347;32;33170;-80
2023/12/13 02:06:35;;;;;;;;;;;;;;;8.32;72.76;98748.66;4407068;32;33311;-80
2023/12/13 02:09:03;;;;;;;;;;;;;;;8.49;71.24;98741.69;4418967;32;34224;-80
2023/12/13 02:11:30;;;;;;;;;;;;;;;8.52;71.96;98741.53;4408285;32;33121;-80
2023/12/13 02:13:58;;;;;;;;;;;;;;;8.59;71.14;98733.25;4407112;32;35031;-80
2023/12/13 02:16:26;;;;;;;;;;;;;;;8.25;73.83;98735.87;4406573;32;32716;-80
2023/12/13 02:18:53;;;;;;;;;;;;;;;8.48;72.01;98729.47;4421612;32;33864;-80
2023/12/13 02:21:21;;;;;;;;;;;;;;;8.44;71.72;98719.09;4419363;32;35227;-80
2023/12/13 02:23:48;;;;;;;;;;;;;;;8.68;70.81;98716.09;4419934;32;34528;-80
2023/12/13 02:26:15;;;;;;;;;;;;;;;8.63;70.81;98718.97;4406683;32;33452;-80
2023/12/13 02:28:43;;;;;;;;;;;;;;;8.35;72.59;98722.19;4407005;32;32935;-80
2023/12/13 02:31:11;;;;;;;;;;;;;;;8.76;71.02;98713.09;4406898;32;34021;-79
2023/12/13 02:33:40;;;;;;;;;;;;;;;8.44;72.48;98719.09;4420375;32;34485;-80
2023/12/13 02:36:09;;;;;;;;;;;;;;;8.57;71.32;98702.69;4421229;32;34067;-79
2023/12/13 02:38:36;;;;;;;;;;;;;;;8.02;72.92;98705.50;4419018;32;33463;-80
2023/12/13 02:41:04;;;;;;;;;;;;;;;8.05;73.51;98707.97;4419326;32;34265;-79
2023/12/13 02:43:32;;;;;;;;;;;;;;;8.49;71.17;98696.97;4416313;32;33918;-80
2023/12/13 02:45:59;;;;;;;;;;;;;;;8.32;72.54;98695.22;4404413;32;32204;-79
2023/12/13 02:48:26;;;;;;;;;;;;;;;8.32;71.92;98693.41;4406516;32;33825;-79
2023/12/13 02:50:54;;;;;;;;;;;;;;;8.64;70.54;98694.41;4406930;32;32989;-80
2023/12/13 02:53:21;;;;;;;;;;;;;;;8.59;70.83;98690.28;4420491;32;34398;-79
2023/12/13 02:55:48;;;;;;;;;;;;;;;8.34;71.23;98686.28;4406899;32;32348;-79
2023/12/13 02:58:16;;;;;;;;;;;;;;;8.61;70.69;98677.91;4419717;32;33843;-79
2023/12/13 03:00:44;;;;;;;;;;;;;;;8.52;70.26;98675.78;4407206;32;33548;-80
2023/12/13 03:03:11;;;;;;;;;;;;;;;8.64;70.35;98683.88;4405792;32;34691;-80
2023/12/13 03:05:39;;;;;;;;;;;;;;;8.36;71.84;98696.75;4420358;32;34381;-80
2023/12/13 03:08:06;;;;;;;;;;;;;;;8.59;70.15;98693.78;4419667;32;33757;-80
2023/12/13 03:10:34;;;;;;;;;;;;;;;8.31;70.71;98696.13;4404741;32;33404;-80
2023/12/13 03:13:01;;;;;;;;;;;;;;;8.26;71.20;98688.50;4418734;32;35090;-80
2023/12/13 03:15:28;;;;;;;;;;;;;;;8.49;70.26;98689.06;4418530;32;33298;-81
2023/12/13 03:17:56;;;;;;;;;;;;;;;8.49;69.98;98684.66;4420236;32;34981;-81
2023/12/13 03:20:24;;;;;;;;;;;;;;;8.20;70.78;98680.91;4420127;32;34310;-79
2023/12/13 03:22:51;;;;;;;;;;;;;;;8.46;70.24;98669.91;4419226;32;34964;-80
2023/12/13 03:25:19;;;;;;;;;;;;;;;8.48;69.95;98672.44;4405612;32;32003;-79
2023/12/13 03:27:46;;;;;;;;;;;;;;;8.43;70.23;98672.69;4406877;32;33246;-79
2023/12/13 03:30:13;;;;;;;;;;;;;;;8.47;70.17;98670.75;4417803;32;34266;-80
2023/12/13 03:32:41;;;;;;;;;;;;;;;8.41;69.06;98666.66;4406114;32;32890;-79
2023/12/13 03:35:09;;;;;;;;;;;;;;;8.20;69.54;98660.72;4405841;32;33050;-79
2023/12/13 03:37:36;;;;;;;;;;;;;;;8.23;71.01;98657.09;4419665;32;32425;-79
2023/12/13 03:40:04;;;;;;;;;;;;;;;8.35;70.22;98666.09;4419466;32;35007;-80
2023/12/13 03:42:31;;;;;;;;;;;;;;;8.02;71.23;98659.03;4419451;32;33988;-81
2023/12/13 03:44:58;;;;;;;;;;;;;;;8.18;70.39;98653.84;4407370;32;32904;-81
2023/12/13 03:47:26;;;;;;;;;;;;;;;8.19;70.30;98637.97;4418150;32;34175;-80
2023/12/13 03:49:53;;;;;;;;;;;;;;;8.09;70.77;98638.53;4418838;32;34246;-80
2023/12/13 03:52:21;;;;;;;;;;;;;;;7.99;71.26;98637.34;4405590;32;33225;-80
2023/12/13 03:54:48;;;;;;;;;;;;;;;8.25;70.19;98631.53;4405401;32;31900;-80
2023/12/13 03:57:16;;;;;;;;;;;;;;;8.25;70.01;98618.38;4404215;32;32034;-80
2023/12/13 03:59:43;;;;;;;;;;;;;;;8.18;69.80;98612.63;4420011;32;33555;-80
2023/12/13 04:02:10;;;;;;;;;;;;;;;8.40;69.12;98612.38;4408194;32;32826;-80
2023/12/13 04:04:38;;;;;;;;;;;;;;;8.21;70.50;98616.84;4407823;32;33058;-80
2023/12/13 04:07:08;;;;;;;;;;;;;;;8.19;70.46;98616.94;4409426;32;33176;-80
2023/12/13 04:09:35;;;;;;;;;;;;;;;8.38;69.45;98627.38;4417757;32;34679;-80
2023/12/13 04:12:03;;;;;;;;;;;;;;;8.30;69.63;98615.53;4407463;32;33177;-80
2023/12/13 04:14:31;;;;;;;;;;;;;;;8.27;69.52;98610.44;4418975;32;33434;-80
2023/12/13 04:16:58;;;;;;;;;;;;;;;8.23;69.58;98606.28;4419771;32;34125;-80
2023/12/13 04:19:26;;;;;;;;;;;;;;;8.12;69.90;98625.25;4421350;32;33756;-80
2023/12/13 04:21:53;;;;;;;;;;;;;;;8.09;70.38;98622.78;4421076;32;33902;-80
2023/12/13 04:24:20;;;;;;;;;;;;;;;8.24;69.98;98607.97;4420443;32;34289;-80
2023/12/13 04:26:48;;;;;;;;;;;;;;;7.86;71.13;98622.19;4420527;32;34155;-80
2023/12/13 04:29:15;;;;;;;;;;;;;;;8.15;70.38;98607.50;4408274;32;33079;-80
2023/12/13 04:31:42;;;;;;;;;;;;;;;8.31;69.45;98602.31;4405850;32;33615;-79
2023/12/13 04:34:10;;;;;;;;;;;;;;;8.24;69.52;98600.06;4419861;32;34708;-79
2023/12/13 04:36:37;;;;;;;;;;;;;;;8.16;69.44;98597.84;4421080;32;34470;-79
2023/12/13 04:39:05;;;;;;;;;;;;;;;8.40;69.24;98590.44;4408464;32;33501;-79
2023/12/13 04:41:33;;;;;;;;;;;;;;;8.32;69.39;98592.63;4406787;32;32951;-79
2023/12/13 04:44:00;;;;;;;;;;;;;;;8.07;69.29;98608.84;4407673;32;32529;-80
2023/12/13 04:46:27;;;;;;;;;;;;;;;8.15;69.35;98596.16;4421256;32;33995;-79
2023/12/13 04:48:55;;;;;;;;;;;;;;;8.29;69.29;98593.63;4407640;32;34062;-80
2023/12/13 04:51:22;;;;;;;;;;;;;;;8.09;70.02;98594.69;4406484;32;33874;-79
2023/12/13 04:53:50;;;;;;;;;;;;;;;8.39;68.80;98591.37;4407871;32;32337;-79
2023/12/13 04:56:17;;;;;;;;;;;;;;;8.40;68.29;98596.59;4419871;32;33683;-79
2023/12/13 04:58:44;;;;;;;;;;;;;;;8.31;69.14;98601.44;4420178;32;34266;-79
2023/12/13 05:01:12;;;;;;;;;;;;;;;8.24;69.11;98608.81;4406208;32;32804;-80
2023/12/13 05:03:39;;;;;;;;;;;;;;;8.28;68.59;98609.50;4419993;32;33663;-79
2023/12/13 05:06:09;;;;;;;;;;;;;;;8.40;68.65;98607.09;4407363;32;32617;-80
2023/12/13 05:08:36;;;;;;;;;;;;;;;8.32;68.82;98604.00;4407237;32;33471;-79
2023/12/13 05:11:04;;;;;;;;;;;;;;;8.37;68.19;98596.75;4418801;32;33969;-79
2023/12/13 05:13:31;;;;;;;;;;;;;;;8.28;68.70;98599.00;4421160;32;34222;-79
2023/12/13 05:15:59;;;;;;;;;;;;;;;8.46;68.52;98595.41;4419343;32;34118;-79
2023/12/13 05:18:26;;;;;;;;;;;;;;;8.47;68.53;98612.88;4407572;32;33971;-79
2023/12/13 05:20:54;;;;;;;;;;;;;;;8.48;68.58;98611.09;4420287;32;33647;-79
2023/12/13 05:23:21;;;;;;;;;;;;;;;8.53;68.11;98616.94;4415814;32;32272;-79
2023/12/13 05:25:51;;;;;;;;;;;;;;;8.58;68.05;98607.03;4420715;32;34590;-79
2023/12/13 05:28:18;;;;;;;;;;;;;;;8.57;68.17;98607.97;4407554;32;34356;-79
2023/12/13 05:30:46;;;;;;;;;;;;;;;8.62;67.72;98605.94;4419742;32;34495;-80
2023/12/13 05:33:13;;;;;;;;;;;;;;;8.61;67.81;98598.97;4418780;32;33999;-79
2023/12/13 05:35:41;;;;;;;;;;;;;;;8.43;67.77;98592.94;4420272;32;34791;-80
2023/12/13 05:38:08;;;;;;;;;;;;;;;8.39;68.55;98596.66;4419683;32;34124;-79
2023/12/13 05:40:36;;;;;;;;;;;;;;;8.48;68.22;98593.53;4421095;32;34420;-80
2023/12/13 05:43:04;;;;;;;;;;;;;;;8.58;67.41;98588.59;4420680;32;32705;-80
2023/12/13 05:45:31;;;;;;;;;;;;;;;8.55;67.51;98578.28;4405565;32;33429;-80
2023/12/13 05:47:58;;;;;;;;;;;;;;;8.50;67.98;98580.28;4417091;32;34926;-79
2023/12/13 05:50:26;;;;;;;;;;;;;;;8.37;68.04;98575.69;4403021;32;33027;-80
2023/12/13 05:52:53;;;;;;;;;;;;;;;8.56;67.78;98570.28;4408165;32;33118;-80
2023/12/13 05:55:21;;;;;;;;;;;;;;;8.48;67.91;98575.09;4416708;32;35367;-80
2023/12/13 05:57:48;;;;;;;;;;;;;;;8.58;67.36;98568.41;4408206;32;34606;-80
2023/12/13 06:00:16;;;;;;;;;;;;;;;8.46;68.10;98567.31;4399531;32;34141;-80
2023/12/13 06:02:44;;;;;;;;;;;;;;;8.57;67.27;98571.97;4393984;32;34189;-80
2023/12/13 06:05:23;;;;;;;;;;;;;;;8.53;67.39;98569.59;4416069;32;33798;-80
2023/12/13 06:07:51;;;;;;;;;;;;;;;8.54;67.34;98566.03;4408727;32;34766;-80
2023/12/13 06:10:18;;;;;;;;;;;;;;;8.50;67.36;98569.75;4418114;32;34558;-80
2023/12/13 06:12:46;;;;;;;;;;;;;;;8.55;67.17;98568.59;4404895;32;33183;-80
2023/12/13 06:15:14;;;;;;;;;;;;;;;8.51;66.83;98547.81;4403790;32;32986;-79
2023/12/13 06:17:41;;;;;;;;;;;;;;;8.43;67.39;98543.78;4404101;32;32416;-81
2023/12/13 06:20:09;;;;;;;;;;;;;;;8.52;67.23;98544.22;4404087;32;33945;-81
2023/12/13 06:22:37;;;;;;;;;;;;;;;8.50;67.44;98543.44;4407717;32;31205;-81
2023/12/13 06:25:05;;;;;;;;;;;;;;;8.51;66.81;98540.75;4407181;32;33065;-81
2023/12/13 06:27:33;;;;;;;;;;;;;;;8.44;67.52;98540.22;4391341;32;32965;-82
2023/12/13 06:30:01;;;;;;;;;;;;;;;8.33;67.71;98539.94;4405742;32;32327;-81
2023/12/13 06:32:30;;;;;;;;;;;;;;;8.40;67.38;98549.25;4417639;32;34032;-82
2023/12/13 06:34:57;;;;;;;;;;;;;;;8.39;67.36;98552.78;4403552;32;32727;-81
2023/12/13 06:37:25;;;;;;;;;;;;;;;8.27;67.51;98563.94;4384723;32;34014;-82
2023/12/13 06:39:53;;;;;;;;;;;;;;;8.23;68.27;98557.16;4404721;32;33111;-81
2023/12/13 06:42:20;;;;;;;;;;;;;;;8.19;68.77;98561.72;4408966;32;33825;-81
2023/12/13 06:44:47;;;;;;;;;;;;;;;8.36;67.67;98563.50;4417978;32;33907;-81
2023/12/13 06:47:15;;;;;;;;;;;;;;;8.23;68.31;98562.41;4407474;32;32884;-80
2023/12/13 06:49:42;;;;;;;;;;;;;;;8.15;68.55;98562.81;4414847;32;33587;-80
2023/12/13 06:52:10;;;;;;;;;;;;;;;8.32;67.82;98564.56;4406191;32;32637;-80
2023/12/13 06:54:38;;;;;;;;;;;;;;;8.35;67.98;98567.00;4406786;32;32801;-80
2023/12/13 06:57:06;;;;;;;;;;;;;;;8.24;68.35;98564.09;4419252;32;33839;-80
2023/12/13 06:59:33;;;;;;;;;;;;;;;8.29;67.68;98562.06;4419749;32;35511;-81
2023/12/13 07:02:00;;;;;;;;;;;;;;;8.34;68.01;98560.03;4418191;32;32914;-81
2023/12/13 07:04:28;;;;;;;;;;;;;;;8.42;68.10;98562.31;4407308;32;32765;-80
2023/12/13 07:06:58;;;;;;;;;;;;;;;8.41;68.05;98566.72;4419984;32;34418;-80
2023/12/13 07:09:26;;;;;;;;;;;;;;;8.50;67.67;98564.50;4419833;32;33650;-80
2023/12/13 07:11:53;;;;;;;;;;;;;;;8.67;66.92;98556.53;4419399;32;33016;-80
2023/12/13 07:14:20;;;;;;;;;;;;;;;8.55;67.42;98557.22;4417243;32;34912;-80
2023/12/13 07:16:48;;;;;;;;;;;;;;;8.57;67.48;98550.94;4419433;32;34126;-80
2023/12/13 07:19:17;;;;;;;;;;;;;;;8.65;66.94;98556.62;4419958;32;34219;-80
2023/12/13 07:21:45;;;;;;;;;;;;;;;8.41;68.04;98561.47;4407139;32;32029;-80
2023/12/13 07:24:12;;;;;;;;;;;;;;;8.58;67.64;98557.03;4406810;32;33195;-80
2023/12/13 07:26:39;;;;;;;;;;;;;;;8.66;67.42;98560.09;4406880;32;33500;-81
2023/12/13 07:29:07;;;;;;;;;;;;;;;8.65;67.56;98550.50;4418657;32;34047;-80
2023/12/13 07:31:39;;;;;;;;;;;;;;;8.69;67.28;98549.41;4406633;32;33112;-81
2023/12/13 07:34:10;;;;;;;;;;;;;;;8.73;67.27;98556.19;4413957;32;32698;-80
2023/12/13 07:36:38;;;;;;;;;;;;;;;8.77;67.28;98557.69;4418771;32;32871;-81
2023/12/13 07:39:05;;;;;;;;;;;;;;;8.72;67.38;98554.47;4421011;32;34213;-80
2023/12/13 07:41:33;;;;;;;;;;;;;;;8.70;67.78;98557.22;4409024;32;32487;-80
2023/12/13 07:44:00;;;;;;;;;;;;;;;8.76;67.44;98556.00;4407981;32;32265;-80
2023/12/13 07:46:29;;;;;;;;;;;;;;;8.78;67.11;98548.88;4421486;32;33796;-80
2023/12/13 07:48:57;;;;;;;;;;;;;;;8.82;67.20;98539.88;4408527;32;32866;-81
2023/12/13 07:51:25;;;;;;;;;;;;;;;8.84;67.24;98539.81;4420491;32;33266;-81
2023/12/13 07:53:52;;;;;;;;;;;;;;;8.54;67.21;98534.47;4421490;32;34096;-80
2023/12/13 07:56:21;;;;;;;;;;;;;;;8.69;67.32;98538.88;4409170;32;32966;-80
2023/12/13 07:58:54;;;;;;;;;;;;;;;8.83;67.20;98536.31;4421033;32;33155;-80
2023/12/13 08:01:26;;;;;;;;;;;;;;;8.77;67.19;98523.50;4408689;32;32018;-80
2023/12/13 08:03:53;;;;;;;;;;;;;;;8.82;67.00;98516.19;4408958;32;34103;-80
2023/12/13 08:06:21;;;;;;;;;;;;;;;8.74;67.49;98515.78;4407517;32;33562;-81
2023/12/13 08:08:48;;;;;;;;;;;;;;;8.72;67.27;98507.97;4421379;32;34551;-80
2023/12/13 08:11:16;;;;;;;;;;;;;;;8.81;67.41;98511.84;4414480;32;34003;-80
2023/12/13 08:13:45;;;;;;;;;;;;;;;8.75;67.32;98514.00;4407986;32;33063;-81
2023/12/13 08:16:12;;;;;;;;;;;;;;;8.57;68.41;98513.25;4419785;32;33732;-80
2023/12/13 08:18:41;;;;;;;;;;;;;;;8.56;68.22;98512.41;4409014;32;33336;-80
2023/12/13 08:21:09;;;;;;;;;;;;;;;8.48;68.42;98505.88;4421436;32;33501;-81
2023/12/13 08:23:37;;;;;;;;;;;;;;;8.57;68.13;98507.97;4408219;32;33611;-81
2023/12/13 08:26:04;;;;;;;;;;;;;;;8.73;67.72;98516.69;4420287;32;33479;-81
2023/12/13 08:28:32;;;;;;;;;;;;;;;8.59;67.95;98511.38;4408423;32;34713;-80
2023/12/13 08:30:59;;;;;;;;;;;;;;;8.65;67.81;98506.63;4423304;32;34249;-80
2023/12/13 08:33:43;;;;;;;;;;;;;;;8.71;67.98;98506.28;4419715;32;33808;-80
2023/12/13 08:36:12;;;;;;;;;;;;;;;8.79;67.29;98497.09;4402750;32;32553;-81
2023/12/13 08:38:39;;;;;;;;;;;;;;;8.63;68.19;98502.38;4404025;32;34380;-80
2023/12/13 08:41:07;;;;;;;;;;;;;;;8.73;68.07;98511.44;4417972;32;87463;-80
2023/12/13 08:43:35;;;;;;;;;;;;;;;8.75;68.37;98516.63;4402586;32;32744;-80
2023/12/13 08:46:02;;;;;;;;;;;;;;;8.68;68.37;98516.13;4420167;32;34008;-80
2023/12/13 08:48:30;;;;;;;;;;;;;;;8.83;67.15;98520.53;4408813;32;34196;-80
2023/12/13 08:50:58;;;;;;;;;;;;;;;8.52;68.69;98521.41;4407700;32;32440;-80
2023/12/13 08:53:25;;;;;;;;;;;;;;;8.56;68.85;98511.56;4409020;32;32992;-81
2023/12/13 08:55:53;;;;;;;;;;;;;;;8.54;68.42;98510.78;4407002;32;33137;-80
2023/12/13 08:58:20;;;;;;;;;;;;;;;8.49;68.82;98518.09;4408067;32;32793;-80
2023/12/13 09:00:48;;;;;;;;;;;;;;;8.57;69.14;98518.50;4408301;32;31777;-80
2023/12/13 09:03:16;;;;;;;;;;;;;;;8.56;69.11;98512.41;4420635;32;34282;-80
2023/12/13 09:05:43;;;;;;;;;;;;;;;8.75;68.04;98512.22;4420040;32;33820;-80
2023/12/13 09:08:11;;;;;;;;;;;;;;;8.65;68.31;98501.38;4420836;32;33912;-80
2023/12/13 09:10:40;;;;;;;;;;;;;;;8.75;68.33;98500.84;4396596;32;33786;-80
2023/12/13 09:13:07;;;;;;;;;;;;;;;8.84;67.28;98495.91;4421032;32;34153;-81
2023/12/13 09:15:34;;;;;;;;;;;;;;;8.86;66.97;98498.44;4421619;32;34543;-80
2023/12/13 09:18:03;;;;;;;;;;;;;;;8.89;67.36;98495.62;4407970;32;33649;-80
2023/12/13 09:20:31;;;;;;;;;;;;;;;8.84;67.40;98500.31;4407943;32;32325;-80
2023/12/13 09:22:59;;;;;;;;;;;;;;;8.96;67.21;98489.91;4421065;32;32731;-81
2023/12/13 09:25:26;;;;;;;;;;;;;;;8.72;68.14;98496.59;4408493;32;33091;-80
2023/12/13 09:27:54;;;;;;;;;;;;;;;8.72;68.57;98488.69;4406223;32;33228;-80
2023/12/13 09:30:22;;;;;;;;;;;;;;;8.95;67.54;98504.03;4407849;32;33601;-80
2023/12/13 09:32:50;;;;;;;;;;;;;;;8.97;67.63;98510.06;4422602;32;34538;-80
2023/12/13 09:35:18;;;;;;;;;;;;;;;8.94;67.90;98514.66;4421275;32;32807;-81
2023/12/13 09:37:45;;;;;;;;;;;;;;;9.06;67.39;98505.19;4420305;32;33970;-80
2023/12/13 09:40:15;;;;;;;;;;;;;;;8.96;67.91;98499.59;4420194;32;34371;-81
2023/12/13 09:42:45;;;;;;;;;;;;;;;9.05;67.87;98501.69;4406480;32;32823;-81
2023/12/13 09:45:17;;;;;;;;;;;;;;;8.98;68.10;98503.00;4420306;32;34942;-80
2023/12/13 09:47:45;;;;;;;;;;;;;;;9.06;67.59;98492.00;4418048;32;34035;-81
2023/12/13 09:50:13;;;;;;;;;;;;;;;9.08;67.85;98500.69;4407937;32;31335;-81
2023/12/13 09:52:41;;;;;;;;;;;;;;;9.05;67.86;98514.03;4404947;32;31655;-81
2023/12/13 09:55:10;;;;;;;;;;;;;;;9.06;68.12;98505.19;4402748;32;33772;-80
2023/12/13 09:57:37;;;;;;;;;;;;;;;9.03;68.33;98508.00;4405483;32;33233;-81
2023/12/13 10:00:12;;;;;;;;;;;;;;;9.22;67.35;98500.72;4419739;32;33115;-81
2023/12/13 10:02:40;;;;;;;;;;;;;;;9.06;67.66;98505.19;4391179;32;33788;-81
2023/12/13 10:05:08;;;;;;;;;;;;;;;9.18;67.69;98499.22;4405881;32;33673;-81
2023/12/13 10:07:36;;;;;;;;;;;;;;;9.19;67.48;98503.53;4393697;32;34518;-81
2023/12/13 10:10:05;;;;;;;;;;;;;;;9.16;66.90;98511.59;4417355;32;32991;-81
2023/12/13 10:12:32;;;;;;;;;;;;;;;9.23;67.35;98505.91;4405824;32;33228;-81
2023/12/13 10:15:10;;;;;;;;;;;;;;;9.15;67.44;98504.66;4418504;32;34409;-81
2023/12/13 10:17:39;;;;;;;;;;;;;;;9.29;67.00;98502.03;4388887;32;34721;-81
2023/12/13 10:20:08;;;;;;;;;;;;;;;9.35;66.87;98490.28;4387737;32;32239;-81
2023/12/13 10:22:36;;;;;;;;;;;;;;;9.35;67.16;98491.16;4404711;32;33507;-81
2023/12/13 10:25:04;;;;;;;;;;;;;;;9.40;67.08;98490.88;4404742;32;34378;-81
2023/12/13 10:27:32;;;;;;;;;;;;;;;9.51;67.04;98490.25;4396905;32;34546;-81
2023/12/13 10:30:01;;;;;;;;;;;;;;;9.49;66.66;98467.47;4404811;32;32642;-81
2023/12/13 10:32:31;;;;;;;;;;;;;;;9.29;67.34;98475.69;4379427;32;32358;-81
2023/12/13 10:35:02;;;;;;;;;;;;;;;9.29;67.62;98474.88;4405135;32;36183;-81
2023/12/13 10:37:30;;;;;;;;;;;;;;;9.65;66.37;98463.91;4405093;32;35516;-81
2023/12/13 10:39:58;;;;;;;;;;;;;;;9.79;65.61;98458.62;4405060;32;32540;-81
2023/12/13 10:42:25;;;;;;;;;;;;;;;9.64;66.05;98460.41;4403945;32;34484;-81
2023/12/13 10:44:53;;;;;;;;;;;;;;;9.73;65.21;98464.25;4417386;32;35001;-81
2023/12/13 10:47:25;;;;;;;;;;;;;;;9.36;66.58;98466.50;4405089;32;31505;-81
2023/12/13 10:49:54;;;;;;;;;;;;;;;9.48;66.85;98457.84;4405266;32;32492;-81
2023/12/13 10:52:23;;;;;;;;;;;;;;;9.44;66.82;98448.44;4415276;32;34443;-81
2023/12/13 10:54:50;;;;;;;;;;;;;;;9.64;66.28;98449.03;4404805;32;33042;-81
2023/12/13 10:57:18;;;;;;;;;;;;;;;9.44;66.47;98430.00;4385177;32;34502;-81
2023/12/13 10:59:45;;;;;;;;;;;;;;;9.59;66.32;98436.13;4416777;32;32848;-81
2023/12/13 11:02:15;;;;;;;;;;;;;;;9.60;65.51;98427.28;4397966;32;32721;-81
2023/12/13 11:04:43;;;;;;;;;;;;;;;9.19;67.15;98437.69;4397739;32;33611;-81
2023/12/13 11:07:11;;;;;;;;;;;;;;;9.22;67.54;98432.25;4413424;32;34414;-81
2023/12/13 11:09:52;;;;;;;;;;;;;;;9.23;67.42;98423.41;4422380;32;34082;-81
2023/12/13 11:12:19;;;;;;;;;;;;;;;9.49;66.98;98420.03;4423135;32;33777;-81
2023/12/13 11:14:51;;;;;;;;;;;;;;;9.51;66.83;98413.84;4408272;32;33126;-81
2023/12/13 11:17:21;;;;;;;;;;;;;;;9.27;67.26;98418.81;4422139;32;34272;-80
2023/12/13 11:19:51;;;;;;;;;;;;;;;9.46;67.02;98420.22;4391245;32;33239;-80
2023/12/13 11:22:25;;;;;;;;;;;;;;;9.44;66.90;98408.91;4422819;32;33657;-81
2023/12/13 11:25:00;;;;;;;;;;;;;;;9.35;67.39;98412.12;4410143;32;30983;-81
2023/12/13 11:27:29;;;;;;;;;;;;;;;9.47;67.01;98400.84;4406238;32;34365;-82
2023/12/13 11:29:57;;;;;;;;;;;;;;;9.44;67.09;98398.38;4396947;32;33173;-82
2023/12/13 11:32:34;;;;;;;;;;;;;;;9.48;67.06;98393.78;4421479;32;34555;-81
2023/12/13 11:35:21;;;;;;;;;;;;;;;9.45;67.20;98392.19;4400533;32;35529;-81
2023/12/13 11:37:52;;;;;;;;;;;;;;;9.53;66.96;98381.16;4423002;32;31644;-81
2023/12/13 11:40:20;;;;;;;;;;;;;;;9.47;67.20;98385.03;4395666;32;33855;-78
2023/12/13 11:42:50;;;;;;;;;;;;;;;9.51;67.28;98384.84;4409212;32;32926;-79
2023/12/13 11:45:19;;;;;;;;;;;;;;;9.88;65.76;98384.25;4408630;32;33277;-79
2023/12/13 11:47:47;;;;;;;;;;;;;;;9.60;66.44;98389.56;4418956;32;33822;-79
2023/12/13 11:50:16;;;;;;;;;;;;;;;9.59;66.65;98387.84;4395357;32;32416;-78
2023/12/13 11:52:44;;;;;;;;;;;;;;;9.55;66.86;98387.19;4419613;32;33452;-79
2023/12/13 11:55:11;;;;;;;;;;;;;;;9.55;66.57;98387.19;4406486;32;32667;-79
2023/12/13 11:57:45;;;;;;;;;;;;;;;9.56;66.80;98385.41;4408190;32;32413;-79
2023/12/13 12:00:16;;;;;;;;;;;;;;;9.66;66.62;98392.63;4406825;32;33207;-79
2023/12/13 12:02:44;;;;;;;;;;;;;;;9.65;66.65;98387.47;4409051;32;32967;-78
2023/12/13 12:05:14;;;;;;;;;;;;;;;9.72;66.56;98375.59;4420380;32;33797;-79
2023/12/13 12:07:42;;;;;;;;;;;;;;;9.71;66.47;98381.81;4383272;32;34131;-79
2023/12/13 12:10:10;;;;;;;;;;;;;;;9.71;66.64;98387.06;4397671;32;32934;-79
2023/12/13 12:12:38;;;;;;;;;;;;;;;9.75;66.34;98381.53;4395220;32;33270;-79
2023/12/13 12:15:05;;;;;;;;;;;;;;;9.77;66.35;98391.97;4397320;32;33447;-79
2023/12/13 12:17:33;;;;;;;;;;;;;;;9.75;66.46;98378.03;4411203;32;34622;-79
2023/12/13 12:20:03;;;;;;;;;;;;;;;9.78;66.46;98393.69;4404716;32;31787;-79
2023/12/13 12:22:33;;;;;;;;;;;;;;;9.69;66.49;98394.25;4419092;32;34784;-79
2023/12/13 12:25:01;;;;;;;;;;;;;;;9.73;66.50;98395.72;4403348;32;34122;-79
2023/12/13 12:27:29;;;;;;;;;;;;;;;9.86;65.84;98403.72;4402780;32;32596;-79
2023/12/13 12:29:56;;;;;;;;;;;;;;;9.75;66.39;98404.41;4405212;32;32166;-79
2023/12/13 12:32:23;;;;;;;;;;;;;;;9.79;66.13;98408.53;4415835;32;34811;-79
2023/12/13 12:34:51;;;;;;;;;;;;;;;9.86;65.87;98401.94;4395517;32;32816;-79
2023/12/13 12:37:18;;;;;;;;;;;;;;;9.34;67.40;98414.84;4393279;32;32849;-79
2023/12/13 12:39:46;;;;;;;;;;;;;;;9.54;67.06;98411.00;4416647;32;34422;-79
2023/12/13 12:42:13;;;;;;;;;;;;;;;9.59;66.70;98416.81;4416694;32;33608;-79
2023/12/13 12:44:41;;;;;;;;;;;;;;;9.61;66.29;98418.44;4395191;32;32483;-79
2023/12/13 12:47:09;;;;;;;;;;;;;;;9.39;67.22;98413.63;4417371;32;34468;-79
2023/12/13 12:49:36;;;;;;;;;;;;;;;9.39;67.34;98418.88;4394614;32;32018;-79
2023/12/13 12:52:04;;;;;;;;;;;;;;;9.43;67.12;98420.41;4404646;32;34080;-79
2023/12/13 12:54:31;;;;;;;;;;;;;;;9.41;66.93;98410.91;4393253;32;33095;-81
2023/12/13 12:56:59;;;;;;;;;;;;;;;9.71;66.18;98402.91;4408203;32;33300;-80
2023/12/13 12:59:29;;;;;;;;;;;;;;;9.51;66.50;98396.22;4415872;32;35117;-81
2023/12/13 13:01:58;;;;;;;;;;;;;;;9.59;66.29;98393.97;4408557;32;33805;-81